Terminal Aerodrome Forecast
Issued by NWS

Home | Current Version | Previous Version | Text Only | Print | Product List | Glossary On
Versions: 1 2 3 4 5 6 7 8 9 10 11 12 13 14 15 16 17 18 19 20 21 22 23 24 25 26
000
FTUS43 KPAH 071446 AAA
TAFCGI
TAF AMD
KCGI 071446Z 0715/0812 21010KT 4SM -TSRA BKN015CB
     FM071700 23012KT P6SM VCTS SCT020CB BKN040
      TEMPO 0720/0724 3SM TSRA OVC020CB
     FM080600 35004KT 2SM BR BKN008=

USA.gov is the U.S. government's official web portal to all federal, state and local government web resources and services.